Time;durP1;ratioP1;P1;durP2;ratioP2;P2;SDS_P1;SDS_P2;PMS_P1;PMS_P2;Temp;Humidity;BMP_temperature;BMP_pressure;BME280_temperature;BME280_humidity;BME280_pressure;Samples;Min_cycle;Max_cycle;Signal;HPM_P1;HPM_P2
2022/04/27 00:01:32;;;;;;;0.10;0.10;;;;;;;;;;1861070;76;26189;-48
2022/04/27 00:03:59;;;;;;;0.17;0.17;;;;;;;;;;1867501;76;26386;-48
2022/04/27 00:06:26;;;;;;;0.10;0.10;;;;;;;;;;1840104;78;26332;-46
2022/04/27 00:08:54;;;;;;;0.20;0.20;;;;;;;;;;1820923;77;26373;-48
2022/04/27 00:11:21;;;;;;;0.10;0.10;;;;;;;;;;1813783;76;26212;-48
2022/04/27 00:13:48;;;;;;;0.10;0.10;;;;;;;;;;1843483;77;26320;-51
2022/04/27 00:16:16;;;;;;;0.45;0.30;;;;;;;;;;1823005;77;26330;-53
2022/04/27 00:18:43;;;;;;;0.10;0.10;;;;;;;;;;1812242;78;26232;-49
2022/04/27 00:21:10;;;;;;;0.45;0.30;;;;;;;;;;1825904;78;26281;-47
2022/04/27 00:23:38;;;;;;;0.28;0.28;;;;;;;;;;1842843;76;26261;-47
2022/04/27 00:26:05;;;;;;;0.42;0.25;;;;;;;;;;1842058;77;26372;-47
2022/04/27 00:28:32;;;;;;;0.35;0.35;;;;;;;;;;1840981;77;26262;-46
2022/04/27 00:30:59;;;;;;;0.15;0.15;;;;;;;;;;1842733;77;26336;-49
2022/04/27 00:33:27;;;;;;;0.20;0.20;;;;;;;;;;1839074;77;26191;-48
2022/04/27 00:35:54;;;;;;;0.28;0.28;;;;;;;;;;1840670;77;26215;-48
2022/04/27 00:38:21;;;;;;;0.30;0.30;;;;;;;;;;1834932;77;26300;-50
2022/04/27 00:40:49;;;;;;;0.10;0.10;;;;;;;;;;1842591;77;26214;-51
2022/04/27 00:43:17;;;;;;;0.20;0.20;;;;;;;;;;1841936;77;26257;-55
2022/04/27 00:45:45;;;;;;;0.10;0.10;;;;;;;;;;1849709;76;26264;-47
2022/04/27 00:48:12;;;;;;;0.20;0.20;;;;;;;;;;1871409;76;26741;-47
2022/04/27 00:50:40;;;;;;;0.28;0.20;;;;;;;;;;1871441;76;26763;-54
2022/04/27 00:53:07;;;;;;;0.20;0.20;;;;;;;;;;1870296;76;26361;-52
2022/04/27 00:55:34;;;;;;;0.20;0.20;;;;;;;;;;1836504;77;26729;-48
2022/04/27 00:58:02;;;;;;;0.55;0.23;;;;;;;;;;1837821;76;26811;-47
2022/04/27 01:00:29;;;;;;;0.25;0.25;;;;;;;;;;1838657;78;26341;-51
2022/04/27 01:02:57;;;;;;;0.85;0.20;;;;;;;;;;1838430;78;26366;-47
2022/04/27 01:05:24;;;;;;;0.20;0.20;;;;;;;;;;1838816;78;26910;-48
2022/04/27 01:07:54;;;;;;;0.20;0.20;;;;;;;;;;1838779;77;26368;-52
2022/04/27 01:10:22;;;;;;;0.20;0.20;;;;;;;;;;1836159;77;26268;-50
2022/04/27 01:12:50;;;;;;;0.10;0.10;;;;;;;;;;1842727;77;26270;-50
2022/04/27 01:15:30;;;;;;;0.10;0.10;;;;;;;;;;1842357;76;26518;-47
2022/04/27 01:17:58;;;;;;;0.20;0.20;;;;;;;;;;1842403;77;26336;-51
2022/04/27 01:20:25;;;;;;;0.20;0.20;;;;;;;;;;1843199;76;26266;-50
2022/04/27 01:22:53;;;;;;;0.20;0.20;;;;;;;;;;1842319;77;26490;-52
2022/04/27 01:25:20;;;;;;;0.25;0.20;;;;;;;;;;1840911;77;26783;-46
2022/04/27 01:27:47;;;;;;;0.60;0.30;;;;;;;;;;1838016;77;25339;-50
2022/04/27 01:30:14;;;;;;;0.20;0.20;;;;;;;;;;1840325;76;26254;-49
2022/04/27 01:32:42;;;;;;;0.20;0.20;;;;;;;;;;1837804;77;26187;-48
2022/04/27 01:35:09;;;;;;;0.25;0.25;;;;;;;;;;1842350;77;26253;-47
2022/04/27 01:40:22;;;;;;;0.30;0.30;;;;;;;;;;1842163;77;26848;-48
2022/04/27 01:42:49;;;;;;;0.30;0.30;;;;;;;;;;1842640;76;26787;-53
2022/04/27 01:45:16;;;;;;;0.20;0.20;;;;;;;;;;1841623;77;26734;-50
2022/04/27 01:47:44;;;;;;;0.20;0.20;;;;;;;;;;1837473;77;26288;-48
2022/04/27 01:50:11;;;;;;;0.30;0.30;;;;;;;;;;1841873;77;26250;-48
2022/04/27 01:55:24;;;;;;;0.20;0.20;;;;;;;;;;1838474;77;26318;-46
2022/04/27 01:57:53;;;;;;;0.20;0.20;;;;;;;;;;1841650;77;26194;-52
2022/04/27 02:00:21;;;;;;;0.20;0.20;;;;;;;;;;1837607;78;26860;-50
2022/04/27 02:02:48;;;;;;;1.12;0.17;;;;;;;;;;1842065;77;26263;-46
2022/04/27 02:05:16;;;;;;;0.28;0.28;;;;;;;;;;1841739;76;26262;-47
2022/04/27 02:07:46;;;;;;;0.20;0.20;;;;;;;;;;1842443;77;26269;-52
2022/04/27 02:10:13;;;;;;;0.30;0.30;;;;;;;;;;1842718;77;26757;-49
2022/04/27 02:12:40;;;;;;;0.35;0.20;;;;;;;;;;1840320;77;26301;-49
2022/04/27 02:15:09;;;;;;;0.30;0.30;;;;;;;;;;1841883;76;26235;-46
2022/04/27 02:17:36;;;;;;;0.42;0.15;;;;;;;;;;1842465;76;26249;-52
2022/04/27 02:20:04;;;;;;;0.10;0.10;;;;;;;;;;1838534;77;26933;-46
2022/04/27 02:22:35;;;;;;;0.13;0.10;;;;;;;;;;1840956;77;26523;-47
2022/04/27 02:25:03;;;;;;;0.23;0.23;;;;;;;;;;1842177;77;26262;-50
2022/04/27 02:27:30;;;;;;;0.25;0.25;;;;;;;;;;1856227;76;26883;-47
2022/04/27 02:29:57;;;;;;;0.30;0.30;;;;;;;;;;1871430;76;26802;-54
2022/04/27 02:32:24;;;;;;;0.50;0.50;;;;;;;;;;1848407;76;26274;-53
2022/04/27 02:34:52;;;;;;;0.03;0.03;;;;;;;;;;1835590;77;26665;-52
2022/04/27 02:37:19;;;;;;;0.20;0.20;;;;;;;;;;1840178;77;26320;-50
2022/04/27 02:39:46;;;;;;;0.30;0.30;;;;;;;;;;1845220;77;26355;-47
2022/04/27 02:42:14;;;;;;;0.20;0.20;;;;;;;;;;1845912;77;26899;-49
2022/04/27 02:44:41;;;;;;;0.95;0.30;;;;;;;;;;1845547;78;26257;-49
2022/04/27 02:47:08;;;;;;;0.30;0.30;;;;;;;;;;1845833;76;26346;-50
2022/04/27 02:52:21;;;;;;;0.30;0.30;;;;;;;;;;1840565;76;26326;-49
2022/04/27 02:54:48;;;;;;;0.20;0.20;;;;;;;;;;1844347;77;26298;-52
2022/04/27 02:57:16;;;;;;;0.20;0.20;;;;;;;;;;1844970;78;26327;-53
2022/04/27 02:59:44;;;;;;;0.72;0.30;;;;;;;;;;1840991;78;27206;-52
2022/04/27 03:02:11;;;;;;;0.20;0.20;;;;;;;;;;1843001;76;26325;-46
2022/04/27 03:04:38;;;;;;;0.28;0.28;;;;;;;;;;1877391;76;26280;-50
2022/04/27 03:07:06;;;;;;;0.90;0.30;;;;;;;;;;1875579;76;26719;-51
2022/04/27 03:09:34;;;;;;;0.35;0.20;;;;;;;;;;1842012;76;26258;-48
2022/04/27 03:12:01;;;;;;;0.25;0.25;;;;;;;;;;1842117;78;26734;-50
2022/04/27 03:14:31;;;;;;;0.30;0.30;;;;;;;;;;1855123;76;26807;-54
2022/04/27 03:16:58;;;;;;;0.25;0.25;;;;;;;;;;1817809;77;26369;-50
2022/04/27 03:19:25;;;;;;;0.20;0.20;;;;;;;;;;1815395;78;26291;-47
2022/04/27 03:21:53;;;;;;;0.20;0.20;;;;;;;;;;1815499;79;26368;-49
2022/04/27 03:24:20;;;;;;;0.20;0.20;;;;;;;;;;1825133;78;26289;-56
2022/04/27 03:26:47;;;;;;;0.20;0.20;;;;;;;;;;1819750;78;26213;-52
2022/04/27 03:29:16;;;;;;;0.30;0.30;;;;;;;;;;1815642;78;26331;-47
2022/04/27 03:31:44;;;;;;;0.30;0.20;;;;;;;;;;1817081;78;26627;-49
2022/04/27 03:34:11;;;;;;;0.25;0.25;;;;;;;;;;1838494;78;26270;-50
2022/04/27 03:36:38;;;;;;;0.53;0.30;;;;;;;;;;1841880;76;26286;-54
2022/04/27 03:39:05;;;;;;;0.25;0.25;;;;;;;;;;1844548;78;26324;-52
2022/04/27 03:41:33;;;;;;;0.75;0.20;;;;;;;;;;1838325;77;26285;-52
2022/04/27 03:44:00;;;;;;;0.30;0.30;;;;;;;;;;1842726;77;26281;-53
2022/04/27 03:46:27;;;;;;;0.37;0.33;;;;;;;;;;1843548;76;26262;-52
2022/04/27 03:48:54;;;;;;;0.45;0.40;;;;;;;;;;1866942;76;26257;-49
2022/04/27 03:51:22;;;;;;;0.30;0.30;;;;;;;;;;1871343;76;26260;-48
2022/04/27 03:53:50;;;;;;;0.20;0.20;;;;;;;;;;1871308;76;26244;-51
2022/04/27 03:56:18;;;;;;;0.25;0.25;;;;;;;;;;1857418;76;26242;-47
2022/04/27 03:58:45;;;;;;;1.25;0.33;;;;;;;;;;1826917;76;26262;-47
2022/04/27 04:01:12;;;;;;;0.20;0.20;;;;;;;;;;1841730;77;26823;-52
2022/04/27 04:03:40;;;;;;;0.25;0.25;;;;;;;;;;1842548;77;26764;-52
2022/04/27 04:06:07;;;;;;;0.23;0.23;;;;;;;;;;1841947;77;26275;-47
2022/04/27 04:08:34;;;;;;;1.05;0.30;;;;;;;;;;1842023;77;26226;-47
2022/04/27 04:11:02;;;;;;;0.30;0.30;;;;;;;;;;1842639;77;26231;-49
2022/04/27 04:13:29;;;;;;;0.33;0.30;;;;;;;;;;1835209;77;26368;-49
2022/04/27 04:15:56;;;;;;;0.30;0.30;;;;;;;;;;1841669;76;26218;-50
2022/04/27 04:18:24;;;;;;;0.57;0.23;;;;;;;;;;1825570;77;26566;-46
2022/04/27 04:20:51;;;;;;;0.20;0.20;;;;;;;;;;1815379;77;26283;-47
2022/04/27 04:23:18;;;;;;;0.20;0.20;;;;;;;;;;1844198;78;26269;-46
2022/04/27 04:28:31;;;;;;;0.37;0.30;;;;;;;;;;1838427;77;26285;-48
2022/04/27 04:30:59;;;;;;;0.20;0.20;;;;;;;;;;1837761;77;26234;-50
2022/04/27 04:33:26;;;;;;;0.65;0.30;;;;;;;;;;1862901;76;26621;-47
2022/04/27 04:35:54;;;;;;;0.30;0.30;;;;;;;;;;1877290;76;26256;-51
2022/04/27 04:38:21;;;;;;;0.25;0.25;;;;;;;;;;1876603;76;26694;-50
2022/04/27 04:40:49;;;;;;;0.40;0.40;;;;;;;;;;1872588;76;26754;-52
2022/04/27 04:43:16;;;;;;;0.30;0.30;;;;;;;;;;1842386;76;26232;-49
2022/04/27 04:45:43;;;;;;;1.00;0.25;;;;;;;;;;1842146;76;26316;-47
2022/04/27 04:48:11;;;;;;;0.30;0.30;;;;;;;;;;1832719;76;26276;-46
2022/04/27 04:50:39;;;;;;;0.20;0.20;;;;;;;;;;1823239;78;26294;-48
2022/04/27 04:53:06;;;;;;;0.30;0.30;;;;;;;;;;1814273;76;26790;-49
2022/04/27 04:55:33;;;;;;;0.30;0.30;;;;;;;;;;1826452;76;26246;-53
2022/04/27 04:58:01;;;;;;;0.40;0.40;;;;;;;;;;1843609;78;26282;-51
2022/04/27 05:00:28;;;;;;;0.75;0.28;;;;;;;;;;1835126;76;26489;-54
2022/04/27 05:02:55;;;;;;;0.40;0.40;;;;;;;;;;1844419;76;26672;-49
2022/04/27 05:05:23;;;;;;;0.25;0.25;;;;;;;;;;1838479;76;26841;-49
2022/04/27 05:07:50;;;;;;;0.30;0.30;;;;;;;;;;1849132;76;26346;-49
2022/04/27 05:10:17;;;;;;;0.28;0.28;;;;;;;;;;1826655;78;26290;-50
2022/04/27 05:12:44;;;;;;;0.28;0.28;;;;;;;;;;1843412;78;26262;-50
2022/04/27 05:15:12;;;;;;;0.88;0.30;;;;;;;;;;1843734;76;26269;-52
2022/04/27 05:17:40;;;;;;;0.30;0.30;;;;;;;;;;1840419;76;26308;-49
2022/04/27 05:20:08;;;;;;;1.40;0.35;;;;;;;;;;1828654;76;26268;-47
2022/04/27 05:22:38;;;;;;;0.40;0.37;;;;;;;;;;1847430;76;26264;-54
2022/04/27 05:25:06;;;;;;;1.40;0.50;;;;;;;;;;1823918;77;26283;-49
2022/04/27 05:27:34;;;;;;;0.35;0.28;;;;;;;;;;1842327;78;26371;-50
2022/04/27 05:32:46;;;;;;;0.35;0.35;;;;;;;;;;1843409;78;26333;-52
2022/04/27 05:35:15;;;;;;;0.45;0.37;;;;;;;;;;1839097;78;26335;-53
2022/04/27 05:37:42;;;;;;;2.40;0.60;;;;;;;;;;1837614;78;26287;-47
2022/04/27 05:40:11;;;;;;;1.12;0.57;;;;;;;;;;1839234;77;26329;-49
2022/04/27 05:42:39;;;;;;;0.40;0.40;;;;;;;;;;1840020;78;26250;-48
2022/04/27 05:45:11;;;;;;;0.60;0.60;;;;;;;;;;1840299;77;26261;-51
2022/04/27 05:47:36;;;;;;;0.33;0.33;;;;;;;;;;1837113;78;26215;-53
2022/04/27 05:50:04;;;;;;;1.05;0.42;;;;;;;;;;1801224;79;26264;-47
2022/04/27 05:52:32;;;;;;;0.35;0.35;;;;;;;;;;1851535;76;26191;-55
2022/04/27 05:55:00;;;;;;;0.80;0.50;;;;;;;;;;1834689;78;26238;-50
2022/04/27 05:57:28;;;;;;;0.40;0.40;;;;;;;;;;1835550;78;26343;-50
2022/04/27 05:59:55;;;;;;;0.40;0.40;;;;;;;;;;1831613;78;26187;-51
2022/04/27 06:02:22;;;;;;;0.75;0.55;;;;;;;;;;1845344;76;26294;-49
2022/04/27 06:04:49;;;;;;;0.40;0.40;;;;;;;;;;1871410;76;26235;-48
2022/04/27 06:07:17;;;;;;;0.45;0.40;;;;;;;;;;1871500;76;26369;-52
2022/04/27 06:09:44;;;;;;;0.50;0.50;;;;;;;;;;1871435;76;26384;-46
2022/04/27 06:12:11;;;;;;;1.37;0.40;;;;;;;;;;1844963;76;26262;-50
2022/04/27 06:14:38;;;;;;;0.30;0.30;;;;;;;;;;1839542;76;26346;-48
2022/04/27 06:17:06;;;;;;;0.37;0.37;;;;;;;;;;1810223;78;26394;-48
2022/04/27 06:19:34;;;;;;;0.53;0.53;;;;;;;;;;1809739;79;26816;-50
2022/04/27 06:22:01;;;;;;;0.40;0.40;;;;;;;;;;1809604;79;26316;-48
2022/04/27 06:24:29;;;;;;;0.20;0.20;;;;;;;;;;1812482;76;26245;-49
2022/04/27 06:26:57;;;;;;;0.50;0.50;;;;;;;;;;1871774;76;26795;-50
2022/04/27 06:29:24;;;;;;;0.55;0.40;;;;;;;;;;1837417;76;26809;-48
2022/04/27 06:31:51;;;;;;;0.33;0.33;;;;;;;;;;1840304;78;27092;-49
2022/04/27 06:34:18;;;;;;;0.85;0.45;;;;;;;;;;1838422;78;26592;-54
2022/04/27 06:36:46;;;;;;;1.25;0.42;;;;;;;;;;1839626;76;26270;-51
2022/04/27 06:39:14;;;;;;;0.40;0.40;;;;;;;;;;1840716;77;26316;-50
2022/04/27 06:41:42;;;;;;;0.30;0.30;;;;;;;;;;1841889;77;26313;-48
2022/04/27 06:44:09;;;;;;;0.35;0.35;;;;;;;;;;1841955;77;26281;-48
2022/04/27 06:46:37;;;;;;;0.20;0.20;;;;;;;;;;1836011;76;26789;-48
2022/04/27 06:49:04;;;;;;;0.47;0.40;;;;;;;;;;1818733;76;26412;-49
2022/04/27 06:51:31;;;;;;;0.30;0.30;;;;;;;;;;1823276;76;26203;-45
2022/04/27 06:53:58;;;;;;;0.30;0.30;;;;;;;;;;1839813;77;26279;-49
2022/04/27 06:56:26;;;;;;;0.37;0.30;;;;;;;;;;1840544;77;26247;-47
2022/04/27 06:58:53;;;;;;;0.30;0.30;;;;;;;;;;1842745;77;26190;-46
2022/04/27 07:01:21;;;;;;;2.70;0.40;;;;;;;;;;1837876;77;26312;-52
2022/04/27 07:03:54;;;;;;;0.20;0.20;;;;;;;;;;1838614;77;26259;-51
2022/04/27 07:06:17;;;;;;;0.30;0.30;;;;;;;;;;1842227;77;26390;-50
2022/04/27 07:08:45;;;;;;;0.30;0.30;;;;;;;;;;1842396;77;26277;-47
2022/04/27 07:11:12;;;;;;;0.45;0.45;;;;;;;;;;1841950;77;26285;-48
2022/04/27 07:13:39;;;;;;;0.40;0.40;;;;;;;;;;1842991;77;26261;-49
2022/04/27 07:16:07;;;;;;;0.30;0.30;;;;;;;;;;1853123;76;26234;-46
2022/04/27 07:18:34;;;;;;;0.60;0.30;;;;;;;;;;1833887;76;26929;-48
2022/04/27 07:21:03;;;;;;;0.30;0.30;;;;;;;;;;1812859;78;26337;-49
2022/04/27 07:23:30;;;;;;;1.35;0.30;;;;;;;;;;1811160;78;26348;-49
2022/04/27 07:25:58;;;;;;;0.20;0.20;;;;;;;;;;1812500;78;26331;-52
2022/04/27 07:28:25;;;;;;;1.22;0.42;;;;;;;;;;1812176;78;26217;-47
2022/04/27 07:30:52;;;;;;;3.83;0.53;;;;;;;;;;1812234;78;26281;-47
2022/04/27 07:33:21;;;;;;;0.35;0.35;;;;;;;;;;1825247;77;26288;-48
2022/04/27 07:35:48;;;;;;;0.98;0.40;;;;;;;;;;1842469;77;26298;-49
2022/04/27 07:38:16;;;;;;;2.90;0.57;;;;;;;;;;1827795;77;26347;-52
2022/04/27 07:40:43;;;;;;;2.65;0.65;;;;;;;;;;1812062;78;26810;-47
2022/04/27 07:43:10;;;;;;;5.05;0.60;;;;;;;;;;1812915;79;26822;-47
2022/04/27 07:45:38;;;;;;;4.33;0.85;;;;;;;;;;1823773;76;26666;-47
2022/04/27 07:48:05;;;;;;;2.50;0.60;;;;;;;;;;1842159;77;26663;-47
2022/04/27 07:50:32;;;;;;;2.80;0.40;;;;;;;;;;1827202;77;26264;-48
2022/04/27 07:53:00;;;;;;;3.15;0.50;;;;;;;;;;1834984;76;26246;-48
2022/04/27 07:55:27;;;;;;;2.47;0.40;;;;;;;;;;1842757;77;26511;-48
2022/04/27 07:57:54;;;;;;;2.42;0.68;;;;;;;;;;1842950;77;26265;-48
2022/04/27 08:00:22;;;;;;;7.17;0.95;;;;;;;;;;1838738;77;26251;-50
2022/04/27 08:02:49;;;;;;;1.98;0.65;;;;;;;;;;1838658;78;26220;-47
2022/04/27 08:05:16;;;;;;;1.82;0.57;;;;;;;;;;1866230;76;26414;-48
2022/04/27 08:07:45;;;;;;;2.15;0.40;;;;;;;;;;1864789;76;25646;-54
2022/04/27 08:10:15;;;;;;;2.40;0.40;;;;;;;;;;1818422;77;26921;-49
2022/04/27 08:12:46;;;;;;;1.90;0.50;;;;;;;;;;1812714;79;26788;-49
2022/04/27 08:15:11;;;;;;;1.45;0.50;;;;;;;;;;1831099;76;26252;-52
2022/04/27 08:18:01;;;;;;;0.37;0.30;;;;;;;;;;1871778;76;26243;-47
2022/04/27 08:23:16;;;;;;;1.10;0.30;;;;;;;;;;1871652;76;26697;-48
2022/04/27 08:25:45;;;;;;;2.95;0.45;;;;;;;;;;1860296;76;26976;-51
2022/04/27 08:28:12;;;;;;;0.72;0.40;;;;;;;;;;1812313;78;26292;-52
2022/04/27 08:30:41;;;;;;;1.45;0.40;;;;;;;;;;1813463;79;26269;-52
2022/04/27 08:33:08;;;;;;;0.50;0.30;;;;;;;;;;1829336;78;26749;-48
2022/04/27 08:35:36;;;;;;;2.05;0.75;;;;;;;;;;1838507;78;26344;-54
2022/04/27 08:38:07;;;;;;;0.40;0.40;;;;;;;;;;1840957;76;26642;-50
2022/04/27 08:40:36;;;;;;;0.33;0.33;;;;;;;;;;1843201;77;26286;-50
2022/04/27 08:43:03;;;;;;;3.60;0.50;;;;;;;;;;1837708;76;26852;-48
2022/04/27 08:45:32;;;;;;;0.80;0.40;;;;;;;;;;1844272;77;26428;-47
2022/04/27 08:48:00;;;;;;;0.65;0.65;;;;;;;;;;1845714;76;26316;-53
2022/04/27 08:50:28;;;;;;;5.25;0.55;;;;;;;;;;1871833;76;26703;-50
2022/04/27 08:52:55;;;;;;;0.30;0.30;;;;;;;;;;1872019;76;26627;-48
2022/04/27 08:55:23;;;;;;;1.17;0.33;;;;;;;;;;1871886;76;26239;-48
2022/04/27 08:57:52;;;;;;;2.15;0.60;;;;;;;;;;1871848;76;26248;-49
2022/04/27 09:00:20;;;;;;;0.60;0.40;;;;;;;;;;1839789;76;26283;-51
2022/04/27 09:02:48;;;;;;;0.37;0.37;;;;;;;;;;1844086;78;26248;-46
2022/04/27 09:05:20;;;;;;;3.20;0.40;;;;;;;;;;1844183;78;26803;-48
2022/04/27 09:07:51;;;;;;;1.70;0.40;;;;;;;;;;1843889;78;26350;-49
2022/04/27 09:10:25;;;;;;;0.40;0.40;;;;;;;;;;1844153;78;26300;-47
2022/04/27 09:12:53;;;;;;;1.95;0.40;;;;;;;;;;1816173;78;26273;-51
2022/04/27 09:15:21;;;;;;;0.82;0.50;;;;;;;;;;1851301;76;26231;-47
2022/04/27 09:20:48;;;;;;;0.40;0.40;;;;;;;;;;1842407;78;26462;-47
2022/04/27 09:23:23;;;;;;;1.67;0.55;;;;;;;;;;1844193;76;26254;-47
2022/04/27 09:25:51;;;;;;;0.30;0.30;;;;;;;;;;1844112;78;26246;-49
2022/04/27 09:28:20;;;;;;;0.60;0.40;;;;;;;;;;1843967;78;26302;-52
2022/04/27 09:30:48;;;;;;;1.57;0.30;;;;;;;;;;1844136;77;26351;-50
2022/04/27 09:33:17;;;;;;;0.40;0.40;;;;;;;;;;1846107;76;26321;-51
2022/04/27 09:35:45;;;;;;;0.20;0.20;;;;;;;;;;1844896;76;26276;-51
2022/04/27 09:38:13;;;;;;;1.65;0.33;;;;;;;;;;1813771;78;26280;-51
2022/04/27 09:40:44;;;;;;;2.37;0.30;;;;;;;;;;1813809;79;26268;-52
2022/04/27 09:43:15;;;;;;;0.53;0.40;;;;;;;;;;1810911;79;26310;-49
2022/04/27 09:45:44;;;;;;;2.65;0.20;;;;;;;;;;1842228;76;26275;-48
2022/04/27 09:48:18;;;;;;;0.30;0.30;;;;;;;;;;1870767;76;26243;-49
2022/04/27 09:50:50;;;;;;;0.20;0.20;;;;;;;;;;1864929;76;26250;-50
2022/04/27 09:53:16;;;;;;;0.33;0.20;;;;;;;;;;1836460;78;26287;-49
2022/04/27 09:55:48;;;;;;;0.93;0.30;;;;;;;;;;1846423;76;26259;-52
2022/04/27 09:58:18;;;;;;;0.50;0.50;;;;;;;;;;1868769;76;26864;-47
2022/04/27 10:00:48;;;;;;;0.68;0.68;;;;;;;;;;1838909;78;26258;-47
2022/04/27 10:03:18;;;;;;;1.72;1.10;;;;;;;;;;1840325;78;26328;-49
2022/04/27 10:05:46;;;;;;;1.70;1.10;;;;;;;;;;1840455;78;25979;-50
2022/04/27 10:08:14;;;;;;;1.80;1.40;;;;;;;;;;1835290;76;26229;-52
2022/04/27 10:10:42;;;;;;;2.00;1.40;;;;;;;;;;1840423;78;26289;-50
2022/04/27 10:13:11;;;;;;;3.40;2.05;;;;;;;;;;1840265;78;26359;-50
2022/04/27 10:15:43;;;;;;;3.72;2.37;;;;;;;;;;1851895;76;26256;-47
2022/04/27 10:18:12;;;;;;;3.35;2.40;;;;;;;;;;1870500;76;26746;-46
2022/04/27 10:20:39;;;;;;;5.10;2.47;;;;;;;;;;1871409;76;26332;-52
2022/04/27 10:23:19;;;;;;;11.35;2.70;;;;;;;;;;1871551;76;26641;-53
2022/04/27 10:25:51;;;;;;;7.25;3.08;;;;;;;;;;1838135;76;26937;-50
2022/04/27 10:28:18;;;;;;;14.40;3.40;;;;;;;;;;1821682;78;26328;-50
2022/04/27 10:30:46;;;;;;;8.33;3.42;;;;;;;;;;1838161;76;26215;-49
2022/04/27 10:33:14;;;;;;;8.95;3.40;;;;;;;;;;1839553;78;26520;-49
2022/04/27 10:35:42;;;;;;;11.00;4.20;;;;;;;;;;1836922;78;26273;-48
2022/04/27 10:38:11;;;;;;;6.92;3.85;;;;;;;;;;1840821;78;26282;-50
2022/04/27 10:40:39;;;;;;;7.72;4.05;;;;;;;;;;1841596;76;26258;-48
2022/04/27 10:43:13;;;;;;;10.53;4.08;;;;;;;;;;1871514;76;26307;-49
2022/04/27 10:45:42;;;;;;;10.20;3.87;;;;;;;;;;1858858;76;26287;-48
2022/04/27 10:48:10;;;;;;;8.05;3.90;;;;;;;;;;1818257;78;26301;-50
2022/04/27 10:50:38;;;;;;;5.15;3.05;;;;;;;;;;1809030;79;26215;-49
2022/04/27 10:53:19;;;;;;;11.12;4.12;;;;;;;;;;1847497;76;26248;-50
2022/04/27 10:55:48;;;;;;;9.43;3.52;;;;;;;;;;1871534;76;26220;-49
2022/04/27 10:58:20;;;;;;;8.33;3.55;;;;;;;;;;1840678;76;26863;-50
2022/04/27 11:01:01;;;;;;;8.55;3.30;;;;;;;;;;1814879;78;26246;-49
2022/04/27 11:03:29;;;;;;;10.85;3.67;;;;;;;;;;1838320;76;26247;-48
2022/04/27 11:06:00;;;;;;;9.30;3.42;;;;;;;;;;1871486;76;26267;-52
2022/04/27 11:08:37;;;;;;;4.83;3.00;;;;;;;;;;1871323;76;26232;-48
2022/04/27 11:11:06;;;;;;;9.08;3.00;;;;;;;;;;1871477;76;27264;-50
2022/04/27 11:13:35;;;;;;;6.40;2.75;;;;;;;;;;1871464;76;26301;-47
2022/04/27 11:16:09;;;;;;;4.87;2.90;;;;;;;;;;1871453;76;26241;-47
2022/04/27 11:18:52;;;;;;;5.45;2.55;;;;;;;;;;1834048;76;26257;-48
2022/04/27 11:21:20;;;;;;;6.20;2.72;;;;;;;;;;1839977;78;26274;-51
2022/04/27 11:23:48;;;;;;;3.90;2.15;;;;;;;;;;1840401;78;26207;-49
2022/04/27 11:26:15;;;;;;;4.92;2.42;;;;;;;;;;1840350;76;26255;-52
2022/04/27 11:28:43;;;;;;;4.15;2.25;;;;;;;;;;1840332;78;26255;-46
2022/04/27 11:31:12;;;;;;;3.87;2.10;;;;;;;;;;1840345;78;26321;-49
2022/04/27 11:33:40;;;;;;;3.87;2.00;;;;;;;;;;1838735;78;26271;-51
2022/04/27 11:36:09;;;;;;;2.85;2.00;;;;;;;;;;1832889;78;26269;-49
2022/04/27 11:38:37;;;;;;;3.87;2.10;;;;;;;;;;1838528;76;26247;-47
2022/04/27 11:41:06;;;;;;;1.95;1.60;;;;;;;;;;1840430;78;26702;-50
2022/04/27 11:43:33;;;;;;;2.95;1.90;;;;;;;;;;1838972;77;26546;-54
2022/04/27 11:46:00;;;;;;;2.87;1.60;;;;;;;;;;1824505;78;26358;-46
2022/04/27 11:48:31;;;;;;;2.95;1.72;;;;;;;;;;1812301;76;26864;-49
2022/04/27 11:51:00;;;;;;;4.30;1.60;;;;;;;;;;1840284;78;26290;-48
2022/04/27 11:53:28;;;;;;;2.90;1.90;;;;;;;;;;1813953;76;26685;-48
2022/04/27 11:55:58;;;;;;;3.75;1.40;;;;;;;;;;1809884;79;26312;-48
2022/04/27 11:58:26;;;;;;;1.62;1.30;;;;;;;;;;1814162;78;26746;-51
2022/04/27 12:00:54;;;;;;;3.10;1.35;;;;;;;;;;1838477;78;26187;-54
2022/04/27 12:03:23;;;;;;;1.25;1.15;;;;;;;;;;1838588;78;26224;-48
2022/04/27 12:05:51;;;;;;;2.65;1.27;;;;;;;;;;1838699;78;26279;-47
2022/04/27 12:08:22;;;;;;;1.37;1.15;;;;;;;;;;1836054;78;26300;-50
2022/04/27 12:10:50;;;;;;;3.12;1.20;;;;;;;;;;1837759;78;26282;-50
2022/04/27 12:13:18;;;;;;;0.90;0.90;;;;;;;;;;1840332;78;26517;-48
2022/04/27 12:15:48;;;;;;;1.40;1.30;;;;;;;;;;1852897;76;26329;-48
2022/04/27 12:18:16;;;;;;;0.98;0.98;;;;;;;;;;1871370;76;26581;-50
2022/04/27 12:20:45;;;;;;;1.77;0.82;;;;;;;;;;1871386;76;26284;-54
2022/04/27 12:23:14;;;;;;;1.52;1.00;;;;;;;;;;1871349;76;26248;-51
2022/04/27 12:26:02;;;;;;;0.82;0.80;;;;;;;;;;1845992;76;26304;-50
2022/04/27 12:28:29;;;;;;;1.27;0.98;;;;;;;;;;1838999;77;27219;-49
2022/04/27 12:30:58;;;;;;;1.25;0.85;;;;;;;;;;1840259;78;26817;-52
2022/04/27 12:33:27;;;;;;;0.90;0.90;;;;;;;;;;1839451;78;26648;-48
2022/04/27 12:39:02;;;;;;;0.80;0.80;;;;;;;;;;1831636;78;26731;-51
2022/04/27 12:41:44;;;;;;;1.00;0.80;;;;;;;;;;1836549;78;26315;-51
2022/04/27 12:44:15;;;;;;;0.62;0.62;;;;;;;;;;1809457;79;26406;-50
2022/04/27 12:47:03;;;;;;;1.05;0.70;;;;;;;;;;1835737;77;26265;-49
2022/04/27 12:49:32;;;;;;;0.70;0.60;;;;;;;;;;1865585;76;26275;-50
2022/04/27 12:52:23;;;;;;;0.60;0.60;;;;;;;;;;1871439;76;26272;-49
2022/04/27 12:54:47;;;;;;;1.02;0.70;;;;;;;;;;1869651;76;26757;-48
2022/04/27 12:57:15;;;;;;;1.15;0.60;;;;;;;;;;1871478;76;25755;-49
2022/04/27 12:59:56;;;;;;;0.55;0.55;;;;;;;;;;1854981;76;26239;-50
2022/04/27 13:02:23;;;;;;;0.60;0.60;;;;;;;;;;1846431;76;27257;-50
2022/04/27 13:04:52;;;;;;;0.40;0.40;;;;;;;;;;1842172;77;26281;-54
2022/04/27 13:07:20;;;;;;;0.50;0.50;;;;;;;;;;1842389;77;26234;-51
2022/04/27 13:12:34;;;;;;;0.37;0.30;;;;;;;;;;1848917;76;26386;-47
2022/04/27 13:15:02;;;;;;;0.42;0.40;;;;;;;;;;1851733;76;26822;-48
2022/04/27 13:17:30;;;;;;;0.70;0.40;;;;;;;;;;1845327;76;26323;-49
2022/04/27 13:19:57;;;;;;;0.40;0.40;;;;;;;;;;1843180;77;25621;-46
2022/04/27 13:22:25;;;;;;;0.35;0.35;;;;;;;;;;1843903;76;26202;-49
2022/04/27 13:24:52;;;;;;;0.42;0.42;;;;;;;;;;1843221;78;26335;-48
2022/04/27 13:27:22;;;;;;;0.50;0.50;;;;;;;;;;1840414;78;26282;-47
2022/04/27 13:29:49;;;;;;;0.40;0.40;;;;;;;;;;1812980;79;26295;-47
2022/04/27 13:32:16;;;;;;;0.30;0.30;;;;;;;;;;1820281;78;26336;-52
2022/04/27 13:34:43;;;;;;;0.45;0.45;;;;;;;;;;1838096;76;26725;-48
2022/04/27 13:37:11;;;;;;;0.40;0.40;;;;;;;;;;1842917;77;26340;-48
2022/04/27 13:39:38;;;;;;;0.30;0.30;;;;;;;;;;1843344;77;26270;-52
2022/04/27 13:42:05;;;;;;;0.20;0.20;;;;;;;;;;1844290;77;26254;-51
2022/04/27 13:44:33;;;;;;;0.10;0.10;;;;;;;;;;1848466;76;26813;-48
2022/04/27 13:47:02;;;;;;;0.30;0.30;;;;;;;;;;1842244;76;26278;-49
2022/04/27 13:49:29;;;;;;;0.30;0.30;;;;;;;;;;1840333;77;26293;-51
2022/04/27 13:51:57;;;;;;;0.37;0.37;;;;;;;;;;1822084;78;26291;-54
2022/04/27 13:54:24;;;;;;;0.30;0.30;;;;;;;;;;1809862;79;26343;-48
2022/04/27 13:56:52;;;;;;;0.13;0.13;;;;;;;;;;1848274;76;26330;-50
2022/04/27 13:59:19;;;;;;;0.30;0.30;;;;;;;;;;1855397;76;26262;-50
2022/04/27 14:01:46;;;;;;;0.20;0.20;;;;;;;;;;1840474;78;26336;-48
2022/04/27 14:04:14;;;;;;;0.65;0.60;;;;;;;;;;1839932;78;26247;-53
2022/04/27 14:06:41;;;;;;;0.30;0.30;;;;;;;;;;1840405;76;26796;-49
2022/04/27 14:09:09;;;;;;;0.20;0.20;;;;;;;;;;1820109;78;26339;-51
2022/04/27 14:14:21;;;;;;;0.30;0.30;;;;;;;;;;1809721;79;26304;-51
2022/04/27 14:19:34;;;;;;;0.40;0.40;;;;;;;;;;1853102;76;26341;-50
2022/04/27 14:22:02;;;;;;;0.40;0.40;;;;;;;;;;1871332;76;27114;-50
2022/04/27 14:24:29;;;;;;;0.42;0.30;;;;;;;;;;1848502;76;26282;-47
2022/04/27 14:26:56;;;;;;;0.13;0.13;;;;;;;;;;1840387;78;26305;-50
2022/04/27 14:29:24;;;;;;;0.20;0.20;;;;;;;;;;1840460;76;26278;-54
2022/04/27 14:31:51;;;;;;;0.20;0.20;;;;;;;;;;1840266;78;26333;-50
2022/04/27 14:34:18;;;;;;;0.30;0.30;;;;;;;;;;1838610;78;26321;-49
2022/04/27 14:36:46;;;;;;;0.20;0.20;;;;;;;;;;1838610;78;26750;-51
2022/04/27 14:39:13;;;;;;;0.20;0.20;;;;;;;;;;1837933;77;26668;-51
2022/04/27 14:41:40;;;;;;;0.10;0.10;;;;;;;;;;1851900;76;26284;-49
2022/04/27 14:44:08;;;;;;;0.35;0.20;;;;;;;;;;1871458;76;26389;-52
2022/04/27 14:46:36;;;;;;;0.13;0.13;;;;;;;;;;1871905;75;26291;-49
2022/04/27 14:49:03;;;;;;;0.10;0.10;;;;;;;;;;1871371;76;26259;-51
2022/04/27 14:51:30;;;;;;;0.23;0.23;;;;;;;;;;1871478;76;27439;-47
2022/04/27 14:53:58;;;;;;;0.20;0.20;;;;;;;;;;1871715;76;26256;-51
2022/04/27 14:56:26;;;;;;;0.20;0.20;;;;;;;;;;1849137;76;26718;-54
2022/04/27 14:58:53;;;;;;;0.20;0.20;;;;;;;;;;1841169;77;26728;-48
2022/04/27 15:01:20;;;;;;;0.20;0.20;;;;;;;;;;1840635;78;26759;-48
2022/04/27 15:03:47;;;;;;;0.20;0.20;;;;;;;;;;1856875;76;26348;-49
2022/04/27 15:06:15;;;;;;;0.17;0.17;;;;;;;;;;1876859;76;26306;-47
2022/04/27 15:08:42;;;;;;;0.10;0.10;;;;;;;;;;1832434;76;26296;-52
2022/04/27 15:11:09;;;;;;;0.25;0.25;;;;;;;;;;1811222;78;26326;-49
2022/04/27 15:13:37;;;;;;;0.13;0.13;;;;;;;;;;1828836;77;26289;-48
2022/04/27 15:16:05;;;;;;;0.20;0.20;;;;;;;;;;1847813;76;26588;-53
2022/04/27 15:18:32;;;;;;;0.20;0.20;;;;;;;;;;1836959;77;26642;-50
2022/04/27 15:23:45;;;;;;;0.10;0.10;;;;;;;;;;1842418;78;26286;-48